Tokio, North Dakota
Current Conditions -  °F | °C
As of 10:15 AM on Thursday 23 Oct 2014 (Local Time) from KDVL Reporting Station
Clear Clear  
Wind Chill: 50°   Ceiling: Unl
Heat Index: 50°   Visibility: 10mi
Dew Point: 36°   Wind: 13mph
Humidity: 58%   Direction: 230°SW
Pressure: 29.85"   Gusts: NA
Location:  47.92°N, 98.82°W
Report Text: KDVL 231515Z AUTO 23011KT 10SM CLR 10/02 A2985 RMK AO1
Loading
Personal Weather Stations






























Interactive Weather Map
Tropical Storm Tracking
New forecast layout! Learn more

10-Day Weather Forecast

Advertisements
Track Severe Weather on mobile